Hovedside
METAR-TAF:

METAR-TAF

Lufthavner :

Sankt Michel lufthavn

Sankt Michel, Finland

breddegrad: 61-44N, lengdegrad: 027-18E, høyde over havet: 138 m

Gjeldene værobservasjon

Denne rapporten ble laget for 8 minutter siden, klokken 17:20 UTC
Vind 4 kt fra Vest
Temperatur 22°C
Luftfuktighet 43%
Trykk 1025 hPa
Sikt 10 km eller mer
ingen skyer under 1500 m og ingen bygeskyer

METAR: EFMI 261720Z AUTO 27004KT CAVOK 22/09 Q1025

Tid: 20:28 (17:28 UTC)


TAF: fraværende

Værobservasjoner og værvarsel for over 4000 flyplasser (METAR- og TAF-rapporter).

Tilgjengelige stasjoner er representert av de røde og gule prikkene på kartet.

Hold musepekeren over prikken for å se navnet på stasjonen.

Klikk så for å se værobservasjoner og -varsler.

For å forandre kartet kan du klikke på den grønne knappen med svart kryss for å zoome inn, på den grønne knappen med strek for å zoome ut, eller på de grønne pilene for å se tilstøtende kart.


METAR-TAF: